Time;durP1;ratioP1;P1;durP2;ratioP2;P2;SDS_P1;SDS_P2;PMS_P1;PMS_P2;Temp;Humidity;BMP_temperature;BMP_pressure;BME280_temperature;BME280_humidity;BME280_pressure;Samples;Min_cycle;Max_cycle;Signal;HPM_P1;HPM_P2
2022/11/21 00:01:50;;;;;;;4.78;1.60;;;;;;;18.84;41.71;100422.72;4985037;28;20264;-67
2022/11/21 00:04:15;;;;;;;5.30;1.50;;;;;;;18.78;42.00;100425.88;4996235;28;20083;-66
2022/11/21 00:06:40;;;;;;;3.93;1.70;;;;;;;18.85;41.92;100441.06;4981624;28;20272;-66
2022/11/21 00:09:06;;;;;;;4.47;1.93;;;;;;;18.82;42.08;100445.78;4985357;28;20888;-69
2022/11/21 00:11:31;;;;;;;3.80;1.73;;;;;;;18.75;42.14;100428.81;5000902;28;20366;-68
2022/11/21 00:13:56;;;;;;;3.17;1.40;;;;;;;18.74;41.92;100441.19;4985768;28;20262;-68
2022/11/21 00:16:22;;;;;;;5.00;1.67;;;;;;;18.74;41.98;100446.47;4981317;28;20275;-67
2022/11/21 00:18:47;;;;;;;6.82;1.65;;;;;;;18.58;41.90;100425.88;4986579;28;20034;-67
2022/11/21 00:21:15;;;;;;;4.55;1.52;;;;;;;18.73;42.00;100451.88;4981395;28;20030;-67
2022/11/21 00:23:41;;;;;;;4.40;1.65;;;;;;;18.71;41.77;100467.00;4996197;28;20034;-67
2022/11/21 00:26:07;;;;;;;5.18;1.77;;;;;;;18.68;41.81;100468.13;4981157;28;20479;-67
2022/11/21 00:28:33;;;;;;;4.45;1.67;;;;;;;18.66;41.96;100462.16;4987836;28;20046;-68
2022/11/21 00:30:58;;;;;;;4.00;1.58;;;;;;;18.60;41.94;100447.69;4980893;28;20398;-67
2022/11/21 00:33:24;;;;;;;3.97;1.73;;;;;;;18.56;41.91;100441.00;4983386;28;20034;-67
2022/11/21 00:35:49;;;;;;;3.88;1.50;;;;;;;18.61;41.86;100448.50;5000727;28;20048;-68
2022/11/21 00:38:15;;;;;;;4.10;1.60;;;;;;;18.58;41.89;100452.28;4997108;28;20117;-67
2022/11/21 00:40:42;;;;;;;5.20;1.63;;;;;;;18.57;42.01;100445.31;4995445;28;20116;-68
2022/11/21 00:43:07;;;;;;;4.20;1.63;;;;;;;18.59;41.79;100453.09;4987802;28;20042;-68
2022/11/21 00:45:33;;;;;;;4.07;1.52;;;;;;;18.52;41.77;100439.63;5000899;28;20041;-66
2022/11/21 00:47:58;;;;;;;3.43;1.53;;;;;;;18.54;42.22;100436.84;4991793;28;20855;-68
2022/11/21 00:50:23;;;;;;;5.85;1.77;;;;;;;18.52;41.68;100434.34;4998680;28;20354;-67
2022/11/21 00:52:52;;;;;;;4.70;1.87;;;;;;;18.51;42.26;100443.22;4994964;28;20149;-67
2022/11/21 00:55:18;;;;;;;5.38;1.77;;;;;;;18.44;42.07;100432.38;4984487;28;20280;-67
2022/11/21 00:57:43;;;;;;;4.65;1.50;;;;;;;18.41;41.92;100432.66;4983840;28;20049;-68
2022/11/21 01:00:09;;;;;;;4.00;1.40;;;;;;;18.43;41.90;100430.72;4998346;28;20038;-68
2022/11/21 01:02:34;;;;;;;3.38;1.45;;;;;;;18.39;41.84;100428.47;5003487;28;21398;-67
2022/11/21 01:05:00;;;;;;;5.03;1.45;;;;;;;18.40;41.86;100430.16;4999455;28;20034;-68
2022/11/21 01:07:25;;;;;;;3.58;1.45;;;;;;;18.39;41.98;100434.63;4986378;28;20074;-68
2022/11/21 01:09:50;;;;;;;5.00;1.70;;;;;;;18.38;41.71;100440.03;4989620;28;20843;-68
2022/11/21 01:12:15;;;;;;;5.37;1.40;;;;;;;18.34;41.79;100441.25;4994201;28;20042;-66
2022/11/21 01:14:41;;;;;;;5.00;1.40;;;;;;;18.33;41.75;100447.53;5003247;28;20255;-66
2022/11/21 01:17:06;;;;;;;4.73;1.57;;;;;;;18.31;41.68;100440.56;4991150;28;20084;-66
2022/11/21 01:19:31;;;;;;;4.45;1.50;;;;;;;18.29;41.72;100439.88;4983923;28;20748;-67
2022/11/21 01:21:56;;;;;;;4.20;1.52;;;;;;;18.34;41.97;100446.53;4991346;28;20042;-66
2022/11/21 01:24:22;;;;;;;4.10;1.47;;;;;;;18.30;41.76;100446.81;5001700;28;20038;-66
2022/11/21 01:26:49;;;;;;;4.07;1.60;;;;;;;18.20;41.86;100432.75;4991585;28;20596;-66
2022/11/21 01:29:15;;;;;;;3.42;1.27;;;;;;;18.26;41.91;100444.56;5002480;28;20299;-67
2022/11/21 01:31:40;;;;;;;4.75;1.33;;;;;;;18.28;41.88;100443.47;4997871;28;20060;-67
2022/11/21 01:34:05;;;;;;;4.30;1.60;;;;;;;18.29;41.91;100447.78;4999751;28;20438;-67
2022/11/21 01:36:33;;;;;;;3.80;1.57;;;;;;;18.23;41.69;100429.84;4989764;28;20133;-67
2022/11/21 01:39:00;;;;;;;4.18;1.40;;;;;;;18.23;41.92;100434.28;4983657;28;20290;-67
2022/11/21 01:41:32;;;;;;;3.58;1.40;;;;;;;18.29;41.82;100446.94;4995695;28;20042;-66
2022/11/21 01:43:57;;;;;;;5.07;1.48;;;;;;;18.28;41.56;100443.47;4992191;28;20030;-67
2022/11/21 01:46:24;;;;;;;4.50;1.48;;;;;;;18.25;41.58;100437.63;4997308;28;20060;-68
2022/11/21 01:48:59;;;;;;;3.85;1.48;;;;;;;18.23;41.69;100444.84;4983243;28;20447;-68
2022/11/21 01:51:29;;;;;;;5.15;1.70;;;;;;;18.25;41.61;100445.56;4985908;28;20040;-66
2022/11/21 01:54:10;;;;;;;3.72;1.30;;;;;;;18.27;41.66;100431.25;4994766;28;20070;-67
2022/11/21 01:56:48;;;;;;;3.15;1.33;;;;;;;18.30;41.40;100441.53;4991217;28;20022;-65
2022/11/21 01:59:20;;;;;;;4.97;1.33;;;;;;;18.28;41.36;100435.56;4983137;28;20038;-67
2022/11/21 02:01:49;;;;;;;5.50;1.92;;;;;;;18.28;41.65;100432.09;4991846;28;20037;-66
2022/11/21 02:04:14;;;;;;;4.85;1.58;;;;;;;18.28;41.40;100435.56;4985349;28;20046;-67
2022/11/21 02:06:40;;;;;;;5.72;1.40;;;;;;;18.26;41.56;100436.66;4983357;28;20034;-68
2022/11/21 02:09:06;;;;;;;3.92;1.60;;;;;;;18.22;41.51;100430.00;4982848;28;20049;-67
2022/11/21 02:11:38;;;;;;;3.63;1.48;;;;;;;18.26;41.59;100444.56;4982860;28;20042;-68
2022/11/21 02:14:04;;;;;;;4.03;1.45;;;;;;;18.16;41.52;100427.88;4993687;28;20034;-68
2022/11/21 02:16:29;;;;;;;3.67;1.38;;;;;;;18.24;41.08;100442.06;5002801;28;20528;-68
2022/11/21 02:18:55;;;;;;;5.28;1.60;;;;;;;18.21;41.52;100438.88;5002159;28;20502;-66
2022/11/21 02:21:39;;;;;;;4.20;1.20;;;;;;;18.23;41.79;100453.59;4999539;28;20046;-67
2022/11/21 02:24:37;;;;;;;5.47;1.57;;;;;;;18.23;41.30;100455.38;4992662;28;20038;-65
2022/11/21 02:27:02;;;;;;;4.35;1.40;;;;;;;18.16;41.30;100449.00;4984945;28;20275;-67
2022/11/21 02:29:27;;;;;;;4.78;1.45;;;;;;;18.15;41.20;100450.81;5001690;28;20085;-67
2022/11/21 02:31:53;;;;;;;4.53;1.27;;;;;;;18.15;41.45;100448.16;5001773;28;20045;-66
2022/11/21 02:34:18;;;;;;;4.53;1.50;;;;;;;18.15;41.21;100439.41;5002221;28;20095;-67
2022/11/21 02:36:46;;;;;;;3.45;1.25;;;;;;;18.15;41.16;100448.16;5001800;28;20267;-66
2022/11/21 02:39:31;;;;;;;3.78;1.40;;;;;;;18.13;41.35;100440.38;4990179;28;20084;-66
2022/11/21 02:42:04;;;;;;;4.30;1.60;;;;;;;18.15;41.05;100449.94;4998924;28;20032;-68
2022/11/21 02:44:42;;;;;;;2.72;1.27;;;;;;;18.12;41.02;100456.34;4982377;28;20038;-65
2022/11/21 02:47:07;;;;;;;4.63;1.58;;;;;;;18.13;40.94;100452.72;4982438;28;20043;-68
2022/11/21 02:49:52;;;;;;;3.85;1.30;;;;;;;18.13;41.09;100458.00;4999706;28;20030;-65
2022/11/21 02:52:18;;;;;;;4.40;1.33;;;;;;;18.17;41.37;100461.22;5001625;28;20057;-65
2022/11/21 02:54:43;;;;;;;2.50;1.00;;;;;;;18.13;41.36;100453.56;4995530;28;20112;-66
2022/11/21 02:57:08;;;;;;;4.87;1.60;;;;;;;18.13;41.16;100453.56;4982074;28;20034;-67
2022/11/21 02:59:33;;;;;;;3.22;1.23;;;;;;;18.09;41.46;100452.16;4996898;28;20271;-66
2022/11/21 03:01:59;;;;;;;3.67;1.27;;;;;;;18.15;41.37;100452.59;4981760;28;20048;-65
2022/11/21 03:04:25;;;;;;;4.82;1.38;;;;;;;18.10;41.27;100453.84;4981925;28;20045;-67
2022/11/21 03:06:51;;;;;;;3.67;1.42;;;;;;;18.12;41.10;100453.72;4995367;28;20038;-67
2022/11/21 03:09:16;;;;;;;4.95;1.48;;;;;;;18.09;40.95;100449.53;4986313;28;20045;-68
2022/11/21 03:11:41;;;;;;;4.13;1.50;;;;;;;18.06;41.04;100443.69;4996384;28;20030;-67
2022/11/21 03:14:07;;;;;;;5.18;1.60;;;;;;;18.06;41.23;100448.97;4988271;28;21134;-67
2022/11/21 03:16:32;;;;;;;4.93;2.00;;;;;;;18.09;40.92;100454.78;5001136;28;20044;-66
2022/11/21 03:18:58;;;;;;;4.07;1.52;;;;;;;18.11;41.08;100455.50;5001291;28;20204;-67
2022/11/21 03:21:23;;;;;;;4.28;1.92;;;;;;;18.04;41.19;100445.59;4985955;28;20034;-66
2022/11/21 03:23:49;;;;;;;4.45;2.00;;;;;;;18.06;41.18;100457.69;4993716;28;20121;-66
2022/11/21 03:26:14;;;;;;;4.50;1.90;;;;;;;18.03;40.97;100442.16;4991531;28;20085;-66
2022/11/21 03:28:40;;;;;;;5.63;2.47;;;;;;;18.07;41.11;100440.91;4981532;28;20303;-66
2022/11/21 03:31:05;;;;;;;4.72;2.13;;;;;;;18.02;40.90;100431.72;4988607;28;20293;-66
2022/11/21 03:33:31;;;;;;;6.88;2.00;;;;;;;17.98;40.87;100428.53;4998443;28;20448;-67
2022/11/21 03:35:56;;;;;;;4.95;2.08;;;;;;;18.04;40.93;100440.34;4983260;28;20056;-66
2022/11/21 03:38:21;;;;;;;4.53;2.10;;;;;;;17.95;40.92;100437.53;4981488;28;20968;-66
2022/11/21 03:40:47;;;;;;;4.85;2.50;;;;;;;17.95;40.88;100439.34;4991389;28;20041;-67
2022/11/21 03:43:12;;;;;;;5.45;2.30;;;;;;;17.90;40.81;100426.56;4981658;28;20030;-67
2022/11/21 03:45:37;;;;;;;5.05;2.55;;;;;;;17.99;41.04;100430.22;4982586;28;20585;-66
2022/11/21 03:48:02;;;;;;;4.30;2.55;;;;;;;17.90;40.92;100423.94;5000838;28;20144;-67
2022/11/21 03:50:28;;;;;;;4.65;2.53;;;;;;;17.98;41.04;100432.97;4995539;28;20042;-67
2022/11/21 03:52:53;;;;;;;5.17;2.83;;;;;;;17.91;41.08;100425.59;4995736;28;20073;-66
2022/11/21 03:55:18;;;;;;;4.50;2.40;;;;;;;17.99;41.06;100448.66;5000007;28;20259;-68
2022/11/21 03:57:43;;;;;;;8.45;3.13;;;;;;;17.97;41.06;100439.22;4987987;28;20280;-65
2022/11/21 04:00:09;;;;;;;5.05;2.63;;;;;;;17.92;41.02;100444.88;4995340;28;20038;-65
2022/11/21 04:02:35;;;;;;;4.75;2.45;;;;;;;17.87;40.71;100439.97;4997555;28;20546;-67
2022/11/21 04:05:00;;;;;;;4.90;2.60;;;;;;;17.98;41.03;100462.00;4995597;28;20120;-67
2022/11/21 04:07:25;;;;;;;5.30;2.67;;;;;;;17.91;40.89;100443.19;4996070;28;20069;-67
2022/11/21 04:09:50;;;;;;;5.97;2.67;;;;;;;17.91;41.13;100441.41;4983767;28;20767;-68
2022/11/21 04:12:16;;;;;;;4.63;2.53;;;;;;;17.92;41.10;100442.25;5000501;28;20639;-67
2022/11/21 04:14:41;;;;;;;4.87;2.27;;;;;;;17.93;40.86;100439.47;4986825;28;20271;-67
2022/11/21 04:17:06;;;;;;;4.33;2.37;;;;;;;17.93;40.72;100441.28;4985249;28;20359;-67
2022/11/21 04:19:31;;;;;;;4.85;2.53;;;;;;;17.91;40.79;100446.69;4988083;28;20274;-66
2022/11/21 04:21:57;;;;;;;4.97;2.63;;;;;;;17.91;41.02;100441.41;4984772;28;20026;-66
2022/11/21 04:24:22;;;;;;;4.90;2.80;;;;;;;17.85;40.84;100436.66;4985248;28;20296;-67
2022/11/21 04:26:47;;;;;;;4.80;2.80;;;;;;;17.91;41.16;100448.47;5001509;28;20270;-68
2022/11/21 04:29:12;;;;;;;5.57;3.17;;;;;;;17.88;41.18;100438.19;5004540;28;20053;-68
2022/11/21 04:31:38;;;;;;;4.93;2.87;;;;;;;17.90;41.06;100439.75;5002817;28;20060;-68
2022/11/21 04:34:03;;;;;;;4.70;2.78;;;;;;;17.78;40.81;100409.13;4991254;28;20272;-67
2022/11/21 04:36:28;;;;;;;5.45;3.17;;;;;;;17.84;41.16;100415.69;5003820;28;20738;-66
2022/11/21 04:38:53;;;;;;;5.80;3.25;;;;;;;17.85;40.82;100415.56;4996640;28;20514;-67
2022/11/21 04:41:19;;;;;;;4.97;3.10;;;;;;;17.89;40.58;100424.88;5000571;28;20096;-67
2022/11/21 04:43:44;;;;;;;6.43;3.40;;;;;;;17.87;40.91;100404.88;5004260;28;20333;-67
2022/11/21 04:46:09;;;;;;;5.53;3.07;;;;;;;17.88;40.63;100417.09;4997015;28;20774;-66
2022/11/21 04:48:34;;;;;;;4.63;3.00;;;;;;;17.86;40.87;100401.38;4997403;28;20299;-66
2022/11/21 04:51:00;;;;;;;5.40;2.87;;;;;;;17.82;40.80;100394.72;4998767;28;20271;-65
2022/11/21 04:53:25;;;;;;;5.15;3.03;;;;;;;17.87;40.92;100402.25;4989942;28;20279;-66
2022/11/21 04:55:50;;;;;;;5.35;3.05;;;;;;;17.79;40.78;100399.44;4987695;28;20038;-66
2022/11/21 04:58:15;;;;;;;5.13;3.47;;;;;;;17.77;40.61;100387.22;4994007;28;20038;-66
2022/11/21 05:00:41;;;;;;;5.03;3.28;;;;;;;17.80;40.92;100391.41;4996049;28;20030;-67
2022/11/21 05:03:06;;;;;;;5.28;3.13;;;;;;;17.82;40.63;100400.00;4994806;28;20033;-67
2022/11/21 05:05:32;;;;;;;4.90;3.00;;;;;;;17.80;40.68;100396.69;4990727;28;20030;-67
2022/11/21 05:07:57;;;;;;;4.82;3.13;;;;;;;17.78;40.72;100390.69;4999117;28;20402;-66
2022/11/21 05:10:23;;;;;;;5.25;3.22;;;;;;;17.77;40.66;100389.84;4988403;28;20455;-65
2022/11/21 05:15:39;;;;;;;5.53;3.08;;;;;;;17.77;40.78;100387.22;4996576;28;20116;-66
2022/11/21 05:18:05;;;;;;;6.38;3.40;;;;;;;17.82;40.57;100394.72;4987238;28;20467;-65
2022/11/21 05:20:30;;;;;;;5.10;3.20;;;;;;;17.80;40.85;100380.88;4991255;28;20048;-65
2022/11/21 05:22:55;;;;;;;5.07;3.38;;;;;;;17.77;40.79;100378.50;4993019;28;20263;-67
2022/11/21 05:25:20;;;;;;;4.63;2.90;;;;;;;17.79;40.68;100379.19;4992951;28;20030;-70
2022/11/21 05:27:46;;;;;;;5.17;3.13;;;;;;;17.82;41.12;100389.47;4995753;28;20354;-68
2022/11/21 05:30:11;;;;;;;5.72;3.28;;;;;;;17.77;40.44;100376.69;4999710;28;20295;-67
2022/11/21 05:32:36;;;;;;;5.43;3.13;;;;;;;17.73;40.38;100363.91;4988159;28;20124;-68
2022/11/21 05:35:02;;;;;;;6.00;3.63;;;;;;;17.74;40.48;100369.03;4997395;28;20840;-67
2022/11/21 05:37:27;;;;;;;4.93;2.80;;;;;;;17.77;40.40;100376.69;4988660;28;20278;-68
2022/11/21 05:39:52;;;;;;;5.03;3.20;;;;;;;17.77;40.47;100365.31;4998596;28;20040;-68
2022/11/21 05:43:44;;;;;;;4.97;3.25;;;;;;;17.77;40.73;100365.31;4994512;28;20260;-66
2022/11/21 05:45:03;;;;;;;5.47;3.42;;;;;;;17.77;40.25;100362.69;5014837;28;20040;-67
2022/11/21 05:47:28;;;;;;;5.18;3.30;;;;;;;17.77;40.61;100360.03;4999856;28;20026;-68
2022/11/21 05:49:53;;;;;;;4.57;2.80;;;;;;;17.71;40.40;100357.94;4988223;28;20046;-67
2022/11/21 05:52:19;;;;;;;5.00;3.13;;;;;;;17.77;40.19;100365.31;4988517;28;20268;-67
2022/11/21 05:54:44;;;;;;;4.73;2.50;;;;;;;17.76;40.28;100364.47;4987206;28;20325;-67
2022/11/21 05:57:09;;;;;;;5.30;3.20;;;;;;;17.68;40.38;100348.47;4984814;28;20303;-67
2022/11/21 05:59:34;;;;;;;5.00;2.80;;;;;;;17.77;40.54;100357.41;4989678;28;20306;-68
2022/11/21 06:04:43;;;;;;;4.93;2.90;;;;;;;17.75;41.30;100341.72;4992152;28;20269;-66
2022/11/21 06:07:09;;;;;;;6.15;2.75;;;;;;;17.84;41.10;100350.59;4994864;28;20034;-69
2022/11/21 06:09:34;;;;;;;6.30;2.70;;;;;;;17.91;41.62;100358.84;4994254;28;20463;-66
2022/11/21 06:11:59;;;;;;;4.30;2.53;;;;;;;17.93;41.21;100365.66;4995837;28;20029;-68
2022/11/21 06:14:25;;;;;;;5.40;2.70;;;;;;;17.93;41.32;100349.00;4998436;28;20045;-66
2022/11/21 06:16:50;;;;;;;4.00;2.20;;;;;;;17.98;41.46;100348.63;4993794;28;20740;-69
2022/11/21 06:19:15;;;;;;;5.20;2.58;;;;;;;18.08;41.13;100350.28;4995219;28;20276;-65
2022/11/21 06:21:41;;;;;;;5.50;2.47;;;;;;;18.09;41.24;100344.03;4993502;28;20091;-66
2022/11/21 06:24:07;;;;;;;4.00;2.40;;;;;;;18.12;41.37;100337.69;4997956;28;20041;-67
2022/11/21 06:26:32;;;;;;;6.47;2.30;;;;;;;18.17;41.57;100332.81;5002261;28;20077;-67
2022/11/21 06:28:57;;;;;;;5.90;2.67;;;;;;;18.22;41.16;100338.50;4989161;28;20049;-67
2022/11/21 06:31:26;;;;;;;4.20;2.20;;;;;;;18.19;41.20;100322.94;4983200;28;20343;-67
2022/11/21 06:33:53;;;;;;;3.85;2.13;;;;;;;18.19;41.19;100308.94;4981944;28;20034;-68
2022/11/21 06:36:18;;;;;;;4.72;2.38;;;;;;;18.18;41.07;100317.81;4988662;28;20034;-67
2022/11/21 06:38:44;;;;;;;4.10;1.98;;;;;;;18.33;41.45;100339.38;4984325;28;20549;-67
2022/11/21 06:41:12;;;;;;;4.55;2.17;;;;;;;18.35;41.32;100324.22;4982174;28;20037;-67
2022/11/21 06:43:38;;;;;;;3.85;1.90;;;;;;;18.36;41.03;100323.22;4986189;28;20048;-66
2022/11/21 06:46:03;;;;;;;4.85;2.40;;;;;;;18.36;41.36;100329.34;5000243;28;20033;-66
2022/11/21 06:48:30;;;;;;;4.07;2.10;;;;;;;18.36;41.39;100317.94;4996582;28;20113;-66
2022/11/21 06:50:55;;;;;;;3.72;1.98;;;;;;;18.37;41.32;100317.81;4982059;28;21164;-65
2022/11/21 06:53:20;;;;;;;4.70;2.10;;;;;;;18.41;41.16;100327.13;4999560;28;20034;-66
2022/11/21 06:55:46;;;;;;;4.30;2.05;;;;;;;18.36;41.31;100304.75;4988392;28;20038;-67
2022/11/21 06:58:11;;;;;;;4.10;1.92;;;;;;;18.44;41.33;100326.84;4982901;28;20038;-67
2022/11/21 07:00:36;;;;;;;4.10;1.83;;;;;;;18.48;41.06;100327.41;4993105;28;20473;-65
2022/11/21 07:03:02;;;;;;;4.47;1.90;;;;;;;18.49;41.09;100319.34;4985440;28;20038;-68
2022/11/21 07:05:28;;;;;;;3.80;2.13;;;;;;;18.49;40.98;100319.34;4990943;28;20264;-68
2022/11/21 07:08:00;;;;;;;3.67;1.88;;;;;;;18.45;41.01;100306.56;4982176;28;20030;-66
2022/11/21 07:10:27;;;;;;;3.47;1.85;;;;;;;18.51;41.25;100316.56;4983356;28;20042;-68
2022/11/21 07:15:44;;;;;;;4.03;1.80;;;;;;;18.54;41.03;100311.00;4981791;28;20038;-68
2022/11/21 07:18:10;;;;;;;3.72;1.70;;;;;;;18.55;41.17;100312.69;4981786;28;20030;-67
2022/11/21 07:20:36;;;;;;;3.67;1.75;;;;;;;18.52;41.24;100305.06;4993213;28;20068;-66
2022/11/21 07:23:01;;;;;;;3.70;1.73;;;;;;;18.51;41.32;100295.47;4996437;28;20037;-68
2022/11/21 07:25:26;;;;;;;4.65;1.80;;;;;;;18.55;41.24;100298.63;4996523;28;20044;-68
2022/11/21 07:27:51;;;;;;;3.20;1.70;;;;;;;18.53;41.36;100296.13;4981595;28;20034;-68
2022/11/21 07:30:17;;;;;;;3.47;1.67;;;;;;;18.60;40.98;100299.06;4983416;28;20300;-68
2022/11/21 07:32:42;;;;;;;3.40;1.63;;;;;;;18.43;41.32;100267.13;5016256;28;20386;-68
2022/11/21 07:35:08;;;;;;;3.27;1.60;;;;;;;18.58;41.22;100293.94;5001006;28;20034;-67
2022/11/21 07:37:37;;;;;;;4.50;1.70;;;;;;;18.63;41.28;100310.19;5005086;28;20286;-68
2022/11/21 07:40:03;;;;;;;4.60;1.70;;;;;;;18.58;41.05;100301.00;4994729;28;20045;-68
2022/11/21 07:42:30;;;;;;;3.33;1.45;;;;;;;18.63;41.10;100294.34;4985925;28;20030;-68
2022/11/21 07:44:55;;;;;;;3.90;1.83;;;;;;;18.65;41.22;100305.56;4992300;28;20039;-69
2022/11/21 07:47:21;;;;;;;4.37;1.63;;;;;;;18.59;40.99;100300.88;4998910;28;20057;-69
2022/11/21 07:49:46;;;;;;;4.43;1.90;;;;;;;18.58;40.86;100288.66;4998974;28;20286;-68
2022/11/21 07:52:11;;;;;;;4.13;1.75;;;;;;;18.66;41.02;100303.78;4986277;28;20342;-69
2022/11/21 07:54:36;;;;;;;3.57;1.50;;;;;;;18.63;41.30;100296.97;5002357;28;20042;-67
2022/11/21 07:57:02;;;;;;;3.65;1.85;;;;;;;18.47;41.26;100257.97;4992191;28;20267;-67
2022/11/21 07:59:27;;;;;;;7.75;1.60;;;;;;;18.73;41.48;100298.78;4998060;28;20076;-68
2022/11/21 08:01:52;;;;;;;4.07;1.77;;;;;;;18.73;41.23;100298.78;4986376;28;20057;-69
2022/11/21 08:04:18;;;;;;;3.30;1.45;;;;;;;18.77;41.22;100292.22;4999632;28;20121;-66
2022/11/21 08:06:43;;;;;;;4.13;1.65;;;;;;;18.79;41.43;100293.75;5001124;28;20534;-67
2022/11/21 08:09:08;;;;;;;2.80;1.30;;;;;;;18.72;41.32;100286.53;5005056;28;20466;-66
2022/11/21 08:11:36;;;;;;;4.07;1.70;;;;;;;18.73;41.52;100275.84;5002147;28;20430;-67
2022/11/21 08:14:02;;;;;;;3.75;1.63;;;;;;;18.76;41.35;100287.94;4997219;28;20439;-65
2022/11/21 08:16:31;;;;;;;3.85;1.70;;;;;;;18.80;40.98;100290.16;4987277;28;20117;-68
2022/11/21 08:18:56;;;;;;;3.92;1.55;;;;;;;18.79;41.24;100287.66;5002022;28;20033;-66
2022/11/21 08:21:22;;;;;;;3.20;1.50;;;;;;;18.80;41.46;100281.38;5001988;28;20049;-68
2022/11/21 08:23:47;;;;;;;4.10;1.50;;;;;;;18.83;41.53;100291.66;4991973;28;20434;-67
2022/11/21 08:26:13;;;;;;;4.70;1.52;;;;;;;18.81;41.88;100277.78;5003821;28;20274;-68
2022/11/21 08:28:38;;;;;;;2.83;1.33;;;;;;;18.79;41.65;100267.34;5003348;28;20053;-66
2022/11/21 08:31:04;;;;;;;5.00;1.60;;;;;;;18.85;41.53;100269.47;4986194;28;20026;-66
2022/11/21 08:33:30;;;;;;;3.10;1.33;;;;;;;18.89;41.83;100264.72;4997182;28;20205;-67
2022/11/21 08:35:55;;;;;;;2.95;1.17;;;;;;;18.90;41.69;100249.69;5000084;28;20402;-67
2022/11/21 08:38:20;;;;;;;3.00;1.30;;;;;;;18.89;41.79;100246.22;4984626;28;20082;-68
2022/11/21 08:40:46;;;;;;;4.23;1.50;;;;;;;18.92;41.89;100240.66;5018366;28;20290;-67
2022/11/21 08:43:11;;;;;;;5.20;1.35;;;;;;;18.90;41.96;100237.34;4988442;28;20272;-67
2022/11/21 08:45:38;;;;;;;3.95;1.42;;;;;;;18.89;42.00;100227.75;4995649;28;20037;-68
2022/11/21 08:48:09;;;;;;;4.57;1.20;;;;;;;18.91;41.83;100239.00;5002889;28;20045;-67
2022/11/21 08:50:34;;;;;;;4.72;1.75;;;;;;;18.94;42.07;100243.16;5003675;28;20026;-68
2022/11/21 08:53:01;;;;;;;4.03;1.60;;;;;;;18.94;42.07;100240.53;5000438;28;20131;-67
2022/11/21 08:55:27;;;;;;;4.50;1.90;;;;;;;18.90;41.56;100242.63;4984036;28;20287;-67
2022/11/21 08:57:52;;;;;;;2.95;1.20;;;;;;;18.97;42.01;100241.06;4987124;28;20042;-68
2022/11/21 09:00:17;;;;;;;2.65;1.20;;;;;;;18.92;42.29;100230.09;4984166;28;20065;-68
2022/11/21 09:02:43;;;;;;;5.25;1.20;;;;;;;18.99;42.20;100230.34;4984000;28;20137;-67
2022/11/21 09:05:09;;;;;;;4.03;1.35;;;;;;;18.92;41.95;100216.09;4991147;28;20114;-67
2022/11/21 09:07:34;;;;;;;2.58;1.00;;;;;;;18.97;41.94;100227.03;5003491;28;20478;-68
2022/11/21 09:09:59;;;;;;;2.72;1.05;;;;;;;18.94;42.27;100222.88;5003561;28;20034;-67
2022/11/21 09:12:25;;;;;;;5.68;1.50;;;;;;;18.95;42.18;100219.25;4983997;28;20026;-69
2022/11/21 09:20:18;;;;;;;3.58;1.20;;;;;;;19.01;41.78;100223.13;4991215;28;20044;-72
2022/11/21 09:22:43;;;;;;;9.40;1.70;;;;;;;18.95;42.00;100218.44;4984679;28;20046;-72
2022/11/21 09:25:08;;;;;;;3.00;1.20;;;;;;;18.89;42.03;100214.56;4975605;28;20053;-71
2022/11/21 09:27:34;;;;;;;5.05;1.60;;;;;;;18.95;42.23;100232.47;4984276;28;20034;-71
2022/11/21 09:29:59;;;;;;;6.60;1.58;;;;;;;19.00;41.92;100226.75;4981886;28;20137;-71
2022/11/21 09:32:25;;;;;;;3.85;1.35;;;;;;;19.03;41.93;100219.34;4981441;28;20125;-70
2022/11/21 09:34:50;;;;;;;4.10;1.73;;;;;;;19.09;41.73;100209.19;4986856;28;20041;-70
2022/11/21 09:37:15;;;;;;;6.05;1.50;;;;;;;19.11;41.89;100196.69;5000053;28;20049;-71
2022/11/21 09:39:41;;;;;;;3.30;1.20;;;;;;;19.09;41.42;100188.91;4996308;28;20113;-76
2022/11/21 09:42:24;;;;;;;3.30;1.10;;;;;;;19.19;41.41;100196.78;4990792;28;21104;-71
2022/11/21 09:45:04;;;;;;;4.32;1.33;;;;;;;19.21;41.40;100193.00;4998886;28;20259;-71
2022/11/21 09:47:41;;;;;;;5.45;1.25;;;;;;;19.16;41.37;100189.16;4988375;28;20045;-71
2022/11/21 09:50:25;;;;;;;3.55;1.40;;;;;;;19.23;41.07;100199.94;4998997;28;20585;-69
2022/11/21 09:53:14;;;;;;;4.53;1.20;;;;;;;19.26;40.90;100183.81;5000445;28;20045;-69
2022/11/21 09:55:47;;;;;;;4.35;1.13;;;;;;;19.27;41.10;100178.38;4995362;28;20064;-72
2022/11/21 09:58:42;;;;;;;5.18;1.45;;;;;;;19.31;41.09;100170.97;5006426;28;20029;-70
2022/11/21 10:01:11;;;;;;;5.03;1.65;;;;;;;19.27;40.96;100165.16;4997738;28;20145;-72
2022/11/21 10:03:45;;;;;;;3.67;1.17;;;;;;;19.17;41.07;100141.44;4993043;28;20068;-72
2022/11/21 10:06:16;;;;;;;;;;;;;;;19.38;41.19;100172.06;4991191;28;20185;-71
2022/11/21 10:09:02;;;;;;;3.55;1.20;;;;;;;19.40;40.93;100172.72;4989030;28;20354;-72
2022/11/21 10:15:12;;;;;;;2.90;1.30;;;;;;;19.42;41.10;100168.13;4982712;28;20084;-69
2022/11/21 10:17:56;;;;;;;3.47;1.00;;;;;;;19.42;41.22;100165.47;5013195;28;20664;-70
2022/11/21 10:20:45;;;;;;;3.38;1.25;;;;;;;19.37;41.13;100151.88;4982267;28;20034;-71
2022/11/21 10:23:23;;;;;;;4.75;1.33;;;;;;;19.43;41.06;100148.66;4997969;28;20133;-72
2022/11/21 10:26:14;;;;;;;3.28;1.17;;;;;;;19.42;40.85;100133.75;4995430;28;20470;-71
2022/11/21 10:35:42;;;;;;;2.90;0.98;;;;;;;19.50;41.05;100122.44;4812978;27;1348500;-72
2022/11/21 10:38:22;;;;;;;6.22;1.00;;;;;;;19.47;41.38;100122.75;5000320;28;20059;-74
2022/11/21 10:41:06;;;;;;;4.22;0.80;;;;;;;19.44;41.50;100110.69;5082754;28;20853;-74
2022/11/21 10:46:25;;;;;;;2.53;0.80;;;;;;;19.47;40.99;100113.03;5088131;28;20399;-74
2022/11/21 10:48:57;;;;;;;2.72;0.73;;;;;;;19.39;41.08;100103.22;5103956;28;20036;-74
2022/11/21 10:51:41;;;;;;;2.03;0.85;;;;;;;19.47;40.86;100106.88;5085151;28;20064;-70
2022/11/21 10:56:58;;;;;;;3.25;0.80;;;;;;;19.37;41.11;100093.75;5088095;28;20493;-74
2022/11/21 10:59:26;;;;;;;2.97;0.95;;;;;;;19.25;41.60;100087.88;5087941;28;20058;-74
2022/11/21 11:01:59;;;;;;;3.22;0.90;;;;;;;19.17;41.50;100080.69;5087586;28;20029;-74
2022/11/21 11:04:27;;;;;;;2.80;0.73;;;;;;;19.14;41.55;100075.72;5088533;28;20475;-74
2022/11/21 11:06:52;;;;;;;3.00;0.90;;;;;;;19.12;41.90;100077.69;5094874;28;20024;-75
2022/11/21 11:09:34;;;;;;;4.50;1.10;;;;;;;19.09;41.63;100070.06;5086787;28;20036;-72
2022/11/21 11:12:18;;;;;;;2.58;0.80;;;;;;;19.07;41.75;100074.63;5085898;28;20064;-73
2022/11/21 11:14:50;;;;;;;4.65;0.90;;;;;;;19.07;41.68;100066.72;5087037;28;20032;-73
2022/11/21 11:17:16;;;;;;;1.25;0.77;;;;;;;19.06;41.95;100065.06;5087035;28;20070;-74
2022/11/21 11:19:59;;;;;;;3.38;0.90;;;;;;;19.01;42.05;100056.78;5086932;28;20051;-75
2022/11/21 11:22:29;;;;;;;2.30;0.90;;;;;;;19.03;41.82;100054.81;5086817;28;20042;-70
2022/11/21 11:24:54;;;;;;;2.78;0.90;;;;;;;19.12;41.76;100048.63;5086730;28;20040;-74
2022/11/21 11:27:26;;;;;;;3.83;1.00;;;;;;;19.11;41.67;100041.69;5086549;28;20038;-74
2022/11/21 11:29:51;;;;;;;3.17;0.90;;;;;;;19.19;41.62;100039.09;5086963;28;20073;-75
2022/11/21 11:32:17;;;;;;;2.53;0.90;;;;;;;19.26;41.67;100035.88;5086371;28;20036;-72
2022/11/21 11:34:51;;;;;;;3.17;1.10;;;;;;;19.25;41.50;100023.63;5085613;28;20056;-74
2022/11/21 11:37:29;;;;;;;3.55;1.10;;;;;;;19.33;41.60;100023.72;5086627;28;20094;-72
2022/11/21 11:40:08;;;;;;;3.33;1.00;;;;;;;19.26;41.70;100020.84;5087577;28;20513;-72
2022/11/21 11:49:00;;;;;;;2.33;0.80;;;;;;;19.10;42.08;99991.66;5077656;28;20046;-75
2022/11/21 11:51:42;;;;;;;2.05;0.80;;;;;;;19.07;42.21;99982.22;5072795;28;20372;-71
2022/11/21 11:54:16;;;;;;;3.38;0.82;;;;;;;19.04;42.26;99979.88;5073350;28;20075;-74
2022/11/21 11:56:42;;;;;;;2.28;0.90;;;;;;;19.02;42.45;99973.91;5073100;28;20050;-73
2022/11/21 11:59:20;;;;;;;1.83;0.77;;;;;;;19.03;42.24;99976.41;5071309;28;20421;-75
2022/11/21 12:01:52;;;;;;;3.53;1.33;;;;;;;19.03;42.48;99965.03;5080694;28;20036;-73
2022/11/21 12:04:23;;;;;;;3.25;1.00;;;;;;;19.01;42.68;99954.63;5073540;28;20115;-68
2022/11/21 12:07:11;;;;;;;4.28;0.90;;;;;;;19.11;42.36;99951.06;5069479;28;20418;-74